sensor_id;sensor_type;location;lat;lon;timestamp;P1;durP1;ratioP1;P2;durP2;ratioP2
18899;SDS011;9582;52.018;6.306;2022-11-20T00:01:04;17.97;;;11.73;;
18899;SDS011;9582;52.018;6.306;2022-11-20T00:03:31;17.83;;;11.90;;
18899;SDS011;9582;52.018;6.306;2022-11-20T00:05:59;16.93;;;11.40;;
18899;SDS011;9582;52.018;6.306;2022-11-20T00:08:27;19.00;;;13.20;;
18899;SDS011;9582;52.018;6.306;2022-11-20T00:10:53;17.33;;;11.63;;
18899;SDS011;9582;52.018;6.306;2022-11-20T00:13:20;17.57;;;12.63;;
18899;SDS011;9582;52.018;6.306;2022-11-20T00:15:46;19.77;;;13.77;;
18899;SDS011;9582;52.018;6.306;2022-11-20T00:18:13;20.47;;;14.17;;
18899;SDS011;9582;52.018;6.306;2022-11-20T00:20:40;20.83;;;13.67;;
18899;SDS011;9582;52.018;6.306;2022-11-20T00:23:06;19.77;;;13.77;;
18899;SDS011;9582;52.018;6.306;2022-11-20T00:25:34;20.33;;;13.37;;
18899;SDS011;9582;52.018;6.306;2022-11-20T00:28:01;22.47;;;13.47;;
18899;SDS011;9582;52.018;6.306;2022-11-20T00:30:27;20.63;;;13.03;;
18899;SDS011;9582;52.018;6.306;2022-11-20T00:32:55;23.03;;;14.07;;
18899;SDS011;9582;52.018;6.306;2022-11-20T00:35:22;21.57;;;13.63;;
18899;SDS011;9582;52.018;6.306;2022-11-20T00:37:49;20.93;;;13.37;;
18899;SDS011;9582;52.018;6.306;2022-11-20T00:40:15;22.97;;;13.73;;
18899;SDS011;9582;52.018;6.306;2022-11-20T00:42:43;24.47;;;14.47;;
18899;SDS011;9582;52.018;6.306;2022-11-20T00:45:09;18.37;;;13.30;;
18899;SDS011;9582;52.018;6.306;2022-11-20T00:47:36;21.87;;;13.90;;
18899;SDS011;9582;52.018;6.306;2022-11-20T00:50:03;18.93;;;13.03;;
18899;SDS011;9582;52.018;6.306;2022-11-20T00:52:30;19.10;;;12.77;;
18899;SDS011;9582;52.018;6.306;2022-11-20T00:54:57;22.93;;;13.37;;
18899;SDS011;9582;52.018;6.306;2022-11-20T00:57:23;19.17;;;12.80;;
18899;SDS011;9582;52.018;6.306;2022-11-20T00:59:51;21.23;;;13.83;;
18899;SDS011;9582;52.018;6.306;2022-11-20T01:02:17;20.50;;;13.03;;
18899;SDS011;9582;52.018;6.306;2022-11-20T01:04:44;21.17;;;13.63;;
18899;SDS011;9582;52.018;6.306;2022-11-20T01:07:10;20.90;;;13.93;;
18899;SDS011;9582;52.018;6.306;2022-11-20T01:09:37;20.43;;;13.70;;
18899;SDS011;9582;52.018;6.306;2022-11-20T01:12:03;21.63;;;13.80;;
18899;SDS011;9582;52.018;6.306;2022-11-20T01:14:30;21.00;;;14.20;;
18899;SDS011;9582;52.018;6.306;2022-11-20T01:16:58;21.20;;;13.63;;
18899;SDS011;9582;52.018;6.306;2022-11-20T01:19:25;22.60;;;13.17;;
18899;SDS011;9582;52.018;6.306;2022-11-20T01:21:52;21.07;;;13.27;;
18899;SDS011;9582;52.018;6.306;2022-11-20T01:24:20;24.97;;;15.33;;
18899;SDS011;9582;52.018;6.306;2022-11-20T01:26:48;26.80;;;15.50;;
18899;SDS011;9582;52.018;6.306;2022-11-20T01:29:17;25.73;;;17.40;;
18899;SDS011;9582;52.018;6.306;2022-11-20T01:31:45;22.87;;;14.30;;
18899;SDS011;9582;52.018;6.306;2022-11-20T01:34:13;20.03;;;13.30;;
18899;SDS011;9582;52.018;6.306;2022-11-20T01:36:41;22.20;;;13.40;;
18899;SDS011;9582;52.018;6.306;2022-11-20T01:39:10;19.67;;;13.47;;
18899;SDS011;9582;52.018;6.306;2022-11-20T01:41:38;22.87;;;13.40;;
18899;SDS011;9582;52.018;6.306;2022-11-20T01:44:20;24.93;;;14.50;;
18899;SDS011;9582;52.018;6.306;2022-11-20T01:46:52;21.50;;;13.70;;
18899;SDS011;9582;52.018;6.306;2022-11-20T01:49:24;21.37;;;13.40;;
18899;SDS011;9582;52.018;6.306;2022-11-20T01:51:58;20.67;;;13.00;;
18899;SDS011;9582;52.018;6.306;2022-11-20T01:54:28;19.57;;;13.00;;
18899;SDS011;9582;52.018;6.306;2022-11-20T01:56:57;22.50;;;13.93;;
18899;SDS011;9582;52.018;6.306;2022-11-20T01:59:25;25.50;;;14.70;;
18899;SDS011;9582;52.018;6.306;2022-11-20T02:01:55;22.77;;;13.50;;
18899;SDS011;9582;52.018;6.306;2022-11-20T02:04:21;24.47;;;13.90;;
18899;SDS011;9582;52.018;6.306;2022-11-20T02:06:51;21.03;;;13.10;;
18899;SDS011;9582;52.018;6.306;2022-11-20T02:09:25;19.73;;;13.47;;
18899;SDS011;9582;52.018;6.306;2022-11-20T02:11:51;21.33;;;12.87;;
18899;SDS011;9582;52.018;6.306;2022-11-20T02:14:18;20.83;;;14.00;;
18899;SDS011;9582;52.018;6.306;2022-11-20T02:16:45;18.77;;;12.23;;
18899;SDS011;9582;52.018;6.306;2022-11-20T02:19:14;20.73;;;12.20;;
18899;SDS011;9582;52.018;6.306;2022-11-20T02:21:47;19.67;;;12.63;;
18899;SDS011;9582;52.018;6.306;2022-11-20T02:24:22;17.43;;;12.00;;
18899;SDS011;9582;52.018;6.306;2022-11-20T02:26:50;18.20;;;11.90;;
18899;SDS011;9582;52.018;6.306;2022-11-20T02:29:19;19.97;;;13.37;;
18899;SDS011;9582;52.018;6.306;2022-11-20T02:31:51;17.83;;;11.70;;
18899;SDS011;9582;52.018;6.306;2022-11-20T02:34:20;20.80;;;13.47;;
18899;SDS011;9582;52.018;6.306;2022-11-20T02:36:48;19.60;;;12.93;;
18899;SDS011;9582;52.018;6.306;2022-11-20T02:39:17;18.57;;;12.37;;
18899;SDS011;9582;52.018;6.306;2022-11-20T02:41:47;21.20;;;12.47;;
18899;SDS011;9582;52.018;6.306;2022-11-20T02:44:14;22.40;;;13.27;;
18899;SDS011;9582;52.018;6.306;2022-11-20T02:46:40;21.23;;;12.43;;
18899;SDS011;9582;52.018;6.306;2022-11-20T02:49:07;20.20;;;13.63;;
18899;SDS011;9582;52.018;6.306;2022-11-20T02:51:33;23.53;;;13.97;;
18899;SDS011;9582;52.018;6.306;2022-11-20T02:54:00;21.73;;;13.60;;
18899;SDS011;9582;52.018;6.306;2022-11-20T02:56:27;23.63;;;13.27;;
18899;SDS011;9582;52.018;6.306;2022-11-20T02:58:55;21.80;;;13.80;;
18899;SDS011;9582;52.018;6.306;2022-11-20T03:01:21;23.70;;;13.57;;
18899;SDS011;9582;52.018;6.306;2022-11-20T03:03:48;22.30;;;13.07;;
18899;SDS011;9582;52.018;6.306;2022-11-20T03:06:15;23.00;;;13.63;;
18899;SDS011;9582;52.018;6.306;2022-11-20T03:08:42;21.90;;;13.80;;
18899;SDS011;9582;52.018;6.306;2022-11-20T03:11:08;21.17;;;14.10;;
18899;SDS011;9582;52.018;6.306;2022-11-20T03:13:35;23.87;;;13.80;;
18899;SDS011;9582;52.018;6.306;2022-11-20T03:16:07;20.97;;;13.37;;
18899;SDS011;9582;52.018;6.306;2022-11-20T03:18:35;20.27;;;13.67;;
18899;SDS011;9582;52.018;6.306;2022-11-20T03:21:01;22.43;;;13.50;;
18899;SDS011;9582;52.018;6.306;2022-11-20T03:23:29;20.93;;;12.63;;
18899;SDS011;9582;52.018;6.306;2022-11-20T03:26:06;23.17;;;13.77;;
18899;SDS011;9582;52.018;6.306;2022-11-20T03:28:34;18.90;;;12.53;;
18899;SDS011;9582;52.018;6.306;2022-11-20T03:31:04;22.40;;;13.57;;
18899;SDS011;9582;52.018;6.306;2022-11-20T03:33:33;22.67;;;13.50;;
18899;SDS011;9582;52.018;6.306;2022-11-20T03:36:00;23.07;;;13.63;;
18899;SDS011;9582;52.018;6.306;2022-11-20T03:38:28;21.20;;;11.80;;
18899;SDS011;9582;52.018;6.306;2022-11-20T03:40:57;18.87;;;12.17;;
18899;SDS011;9582;52.018;6.306;2022-11-20T03:43:25;19.60;;;12.13;;
18899;SDS011;9582;52.018;6.306;2022-11-20T03:45:52;20.07;;;11.73;;
18899;SDS011;9582;52.018;6.306;2022-11-20T03:48:19;19.27;;;9.70;;
18899;SDS011;9582;52.018;6.306;2022-11-20T03:50:46;15.77;;;9.67;;
18899;SDS011;9582;52.018;6.306;2022-11-20T03:53:13;20.37;;;12.60;;
18899;SDS011;9582;52.018;6.306;2022-11-20T03:55:40;23.23;;;12.97;;
18899;SDS011;9582;52.018;6.306;2022-11-20T03:58:06;19.60;;;12.47;;
18899;SDS011;9582;52.018;6.306;2022-11-20T04:00:33;20.03;;;11.90;;
18899;SDS011;9582;52.018;6.306;2022-11-20T04:03:00;19.23;;;12.30;;
18899;SDS011;9582;52.018;6.306;2022-11-20T04:05:28;19.83;;;11.87;;
18899;SDS011;9582;52.018;6.306;2022-11-20T04:07:55;19.53;;;11.77;;
18899;SDS011;9582;52.018;6.306;2022-11-20T04:10:21;18.90;;;11.93;;
18899;SDS011;9582;52.018;6.306;2022-11-20T04:12:49;22.00;;;12.70;;
18899;SDS011;9582;52.018;6.306;2022-11-20T04:15:15;21.00;;;11.73;;
18899;SDS011;9582;52.018;6.306;2022-11-20T04:17:42;22.90;;;12.70;;
18899;SDS011;9582;52.018;6.306;2022-11-20T04:20:09;21.67;;;11.43;;
18899;SDS011;9582;52.018;6.306;2022-11-20T04:22:38;20.43;;;11.87;;
18899;SDS011;9582;52.018;6.306;2022-11-20T04:25:04;19.10;;;11.60;;
18899;SDS011;9582;52.018;6.306;2022-11-20T04:27:31;20.47;;;11.77;;
18899;SDS011;9582;52.018;6.306;2022-11-20T04:29:58;19.70;;;11.63;;
18899;SDS011;9582;52.018;6.306;2022-11-20T04:32:24;20.57;;;11.60;;
18899;SDS011;9582;52.018;6.306;2022-11-20T04:34:51;18.03;;;12.33;;
18899;SDS011;9582;52.018;6.306;2022-11-20T04:37:17;19.47;;;12.23;;
18899;SDS011;9582;52.018;6.306;2022-11-20T04:39:45;18.07;;;11.60;;
18899;SDS011;9582;52.018;6.306;2022-11-20T04:42:11;19.10;;;11.37;;
18899;SDS011;9582;52.018;6.306;2022-11-20T04:44:56;20.67;;;12.17;;
18899;SDS011;9582;52.018;6.306;2022-11-20T04:47:23;18.23;;;11.47;;
18899;SDS011;9582;52.018;6.306;2022-11-20T04:49:50;22.17;;;11.77;;
18899;SDS011;9582;52.018;6.306;2022-11-20T04:52:16;21.23;;;12.07;;
18899;SDS011;9582;52.018;6.306;2022-11-20T04:54:42;22.60;;;12.10;;
18899;SDS011;9582;52.018;6.306;2022-11-20T04:57:12;17.73;;;11.27;;
18899;SDS011;9582;52.018;6.306;2022-11-20T04:59:39;19.37;;;12.30;;
18899;SDS011;9582;52.018;6.306;2022-11-20T05:02:06;18.90;;;11.23;;
18899;SDS011;9582;52.018;6.306;2022-11-20T05:04:32;19.53;;;12.37;;
18899;SDS011;9582;52.018;6.306;2022-11-20T05:06:59;16.80;;;11.07;;
18899;SDS011;9582;52.018;6.306;2022-11-20T05:09:25;20.60;;;12.07;;
18899;SDS011;9582;52.018;6.306;2022-11-20T05:11:53;22.27;;;13.00;;
18899;SDS011;9582;52.018;6.306;2022-11-20T05:14:19;18.43;;;10.80;;
18899;SDS011;9582;52.018;6.306;2022-11-20T05:16:46;18.80;;;11.17;;
18899;SDS011;9582;52.018;6.306;2022-11-20T05:19:12;19.47;;;11.70;;
18899;SDS011;9582;52.018;6.306;2022-11-20T05:21:39;17.70;;;11.23;;
18899;SDS011;9582;52.018;6.306;2022-11-20T05:24:05;17.40;;;11.47;;
18899;SDS011;9582;52.018;6.306;2022-11-20T05:26:32;19.87;;;11.70;;
18899;SDS011;9582;52.018;6.306;2022-11-20T05:29:00;17.00;;;11.43;;
18899;SDS011;9582;52.018;6.306;2022-11-20T05:31:26;19.13;;;12.40;;
18899;SDS011;9582;52.018;6.306;2022-11-20T05:33:53;20.43;;;12.47;;
18899;SDS011;9582;52.018;6.306;2022-11-20T05:36:21;17.77;;;11.97;;
18899;SDS011;9582;52.018;6.306;2022-11-20T05:38:48;20.93;;;12.87;;
18899;SDS011;9582;52.018;6.306;2022-11-20T05:41:15;19.40;;;12.90;;
18899;SDS011;9582;52.018;6.306;2022-11-20T05:43:43;19.67;;;13.03;;
18899;SDS011;9582;52.018;6.306;2022-11-20T05:46:13;20.93;;;12.60;;
18899;SDS011;9582;52.018;6.306;2022-11-20T05:48:41;17.70;;;12.13;;
18899;SDS011;9582;52.018;6.306;2022-11-20T05:51:09;18.67;;;12.07;;
18899;SDS011;9582;52.018;6.306;2022-11-20T05:53:37;20.77;;;12.77;;
18899;SDS011;9582;52.018;6.306;2022-11-20T05:56:05;20.93;;;12.60;;
18899;SDS011;9582;52.018;6.306;2022-11-20T05:58:33;20.70;;;12.47;;
18899;SDS011;9582;52.018;6.306;2022-11-20T06:01:04;20.70;;;12.47;;
18899;SDS011;9582;52.018;6.306;2022-11-20T06:03:33;16.53;;;11.47;;
18899;SDS011;9582;52.018;6.306;2022-11-20T06:06:00;19.77;;;11.10;;
18899;SDS011;9582;52.018;6.306;2022-11-20T06:08:27;20.07;;;11.10;;
18899;SDS011;9582;52.018;6.306;2022-11-20T06:10:54;18.70;;;12.33;;
18899;SDS011;9582;52.018;6.306;2022-11-20T06:13:20;18.67;;;11.90;;
18899;SDS011;9582;52.018;6.306;2022-11-20T06:15:48;18.53;;;11.70;;
18899;SDS011;9582;52.018;6.306;2022-11-20T06:18:15;21.60;;;12.80;;
18899;SDS011;9582;52.018;6.306;2022-11-20T06:20:43;18.67;;;11.90;;
18899;SDS011;9582;52.018;6.306;2022-11-20T06:23:10;21.53;;;12.73;;
18899;SDS011;9582;52.018;6.306;2022-11-20T06:25:37;20.43;;;12.40;;
18899;SDS011;9582;52.018;6.306;2022-11-20T06:28:03;18.80;;;11.30;;
18899;SDS011;9582;52.018;6.306;2022-11-20T06:30:30;18.23;;;11.63;;
18899;SDS011;9582;52.018;6.306;2022-11-20T06:32:56;22.83;;;12.40;;
18899;SDS011;9582;52.018;6.306;2022-11-20T06:35:23;17.43;;;10.43;;
18899;SDS011;9582;52.018;6.306;2022-11-20T06:37:52;19.90;;;11.60;;
18899;SDS011;9582;52.018;6.306;2022-11-20T06:40:18;18.13;;;11.67;;
18899;SDS011;9582;52.018;6.306;2022-11-20T06:42:45;19.13;;;11.27;;
18899;SDS011;9582;52.018;6.306;2022-11-20T06:45:11;18.10;;;11.70;;
18899;SDS011;9582;52.018;6.306;2022-11-20T06:47:38;18.60;;;11.60;;
18899;SDS011;9582;52.018;6.306;2022-11-20T06:50:05;19.23;;;11.83;;
18899;SDS011;9582;52.018;6.306;2022-11-20T06:52:32;19.33;;;11.10;;
18899;SDS011;9582;52.018;6.306;2022-11-20T06:55:00;18.13;;;11.80;;
18899;SDS011;9582;52.018;6.306;2022-11-20T06:57:26;17.77;;;11.23;;
18899;SDS011;9582;52.018;6.306;2022-11-20T06:59:53;20.10;;;11.97;;
18899;SDS011;9582;52.018;6.306;2022-11-20T07:02:19;21.63;;;11.27;;
18899;SDS011;9582;52.018;6.306;2022-11-20T07:04:46;17.40;;;10.20;;
18899;SDS011;9582;52.018;6.306;2022-11-20T07:07:12;18.10;;;11.23;;
18899;SDS011;9582;52.018;6.306;2022-11-20T07:09:39;20.83;;;11.50;;
18899;SDS011;9582;52.018;6.306;2022-11-20T07:12:07;19.57;;;10.80;;
18899;SDS011;9582;52.018;6.306;2022-11-20T07:14:34;18.23;;;11.70;;
18899;SDS011;9582;52.018;6.306;2022-11-20T07:17:01;16.50;;;10.80;;
18899;SDS011;9582;52.018;6.306;2022-11-20T07:19:27;18.13;;;10.97;;
18899;SDS011;9582;52.018;6.306;2022-11-20T07:21:54;18.83;;;11.47;;
18899;SDS011;9582;52.018;6.306;2022-11-20T07:24:20;20.63;;;11.57;;
18899;SDS011;9582;52.018;6.306;2022-11-20T07:26:47;20.50;;;11.07;;
18899;SDS011;9582;52.018;6.306;2022-11-20T07:29:15;19.27;;;11.70;;
18899;SDS011;9582;52.018;6.306;2022-11-20T07:31:42;19.13;;;11.93;;
18899;SDS011;9582;52.018;6.306;2022-11-20T07:34:08;20.87;;;11.87;;
18899;SDS011;9582;52.018;6.306;2022-11-20T07:36:35;20.63;;;12.03;;
18899;SDS011;9582;52.018;6.306;2022-11-20T07:39:01;19.47;;;12.30;;
18899;SDS011;9582;52.018;6.306;2022-11-20T07:41:28;22.57;;;12.33;;
18899;SDS011;9582;52.018;6.306;2022-11-20T07:43:54;21.57;;;12.47;;
18899;SDS011;9582;52.018;6.306;2022-11-20T07:46:22;17.40;;;11.33;;
18899;SDS011;9582;52.018;6.306;2022-11-20T07:48:49;17.93;;;11.43;;
18899;SDS011;9582;52.018;6.306;2022-11-20T07:51:15;18.80;;;11.90;;
18899;SDS011;9582;52.018;6.306;2022-11-20T07:53:42;21.30;;;11.90;;
18899;SDS011;9582;52.018;6.306;2022-11-20T07:56:08;19.77;;;12.37;;
18899;SDS011;9582;52.018;6.306;2022-11-20T07:58:35;19.17;;;12.20;;
18899;SDS011;9582;52.018;6.306;2022-11-20T08:01:05;18.50;;;11.43;;
18899;SDS011;9582;52.018;6.306;2022-11-20T08:03:33;19.87;;;12.97;;
18899;SDS011;9582;52.018;6.306;2022-11-20T08:06:02;22.57;;;13.90;;
18899;SDS011;9582;52.018;6.306;2022-11-20T08:08:30;21.43;;;13.00;;
18899;SDS011;9582;52.018;6.306;2022-11-20T08:10:56;22.67;;;13.50;;
18899;SDS011;9582;52.018;6.306;2022-11-20T08:13:44;22.63;;;13.70;;
18899;SDS011;9582;52.018;6.306;2022-11-20T08:16:28;20.97;;;12.67;;
18899;SDS011;9582;52.018;6.306;2022-11-20T08:18:56;18.07;;;10.53;;
18899;SDS011;9582;52.018;6.306;2022-11-20T08:21:22;20.07;;;13.10;;
18899;SDS011;9582;52.018;6.306;2022-11-20T08:23:49;22.57;;;12.97;;
18899;SDS011;9582;52.018;6.306;2022-11-20T08:26:15;18.97;;;10.80;;
18899;SDS011;9582;52.018;6.306;2022-11-20T08:28:42;22.73;;;12.07;;
18899;SDS011;9582;52.018;6.306;2022-11-20T08:31:09;22.27;;;13.20;;
18899;SDS011;9582;52.018;6.306;2022-11-20T08:33:35;24.63;;;13.37;;
18899;SDS011;9582;52.018;6.306;2022-11-20T08:36:04;27.03;;;14.33;;
18899;SDS011;9582;52.018;6.306;2022-11-20T08:38:31;21.73;;;13.70;;
18899;SDS011;9582;52.018;6.306;2022-11-20T08:40:58;27.67;;;15.53;;
18899;SDS011;9582;52.018;6.306;2022-11-20T08:43:43;25.63;;;16.00;;
18899;SDS011;9582;52.018;6.306;2022-11-20T08:46:10;26.80;;;16.17;;
18899;SDS011;9582;52.018;6.306;2022-11-20T08:48:36;28.10;;;15.20;;
18899;SDS011;9582;52.018;6.306;2022-11-20T08:51:04;25.30;;;15.93;;
18899;SDS011;9582;52.018;6.306;2022-11-20T08:53:31;29.17;;;16.13;;
18899;SDS011;9582;52.018;6.306;2022-11-20T08:55:57;26.83;;;16.43;;
18899;SDS011;9582;52.018;6.306;2022-11-20T08:58:24;28.13;;;15.87;;
18899;SDS011;9582;52.018;6.306;2022-11-20T09:00:51;27.57;;;16.80;;
18899;SDS011;9582;52.018;6.306;2022-11-20T09:03:17;26.87;;;16.37;;
18899;SDS011;9582;52.018;6.306;2022-11-20T09:05:44;24.43;;;15.47;;
18899;SDS011;9582;52.018;6.306;2022-11-20T09:08:12;25.23;;;16.37;;
18899;SDS011;9582;52.018;6.306;2022-11-20T09:10:39;27.30;;;17.40;;
18899;SDS011;9582;52.018;6.306;2022-11-20T09:13:05;25.73;;;17.00;;
18899;SDS011;9582;52.018;6.306;2022-11-20T09:15:32;28.37;;;16.87;;
18899;SDS011;9582;52.018;6.306;2022-11-20T09:18:00;26.13;;;16.57;;
18899;SDS011;9582;52.018;6.306;2022-11-20T09:20:29;27.00;;;17.17;;
18899;SDS011;9582;52.018;6.306;2022-11-20T09:22:56;27.40;;;17.30;;
18899;SDS011;9582;52.018;6.306;2022-11-20T09:25:24;25.97;;;16.70;;
18899;SDS011;9582;52.018;6.306;2022-11-20T09:27:54;28.83;;;16.47;;
18899;SDS011;9582;52.018;6.306;2022-11-20T09:30:21;26.63;;;16.20;;
18899;SDS011;9582;52.018;6.306;2022-11-20T09:32:47;28.87;;;17.73;;
18899;SDS011;9582;52.018;6.306;2022-11-20T09:35:14;28.57;;;17.10;;
18899;SDS011;9582;52.018;6.306;2022-11-20T09:37:40;30.93;;;17.73;;
18899;SDS011;9582;52.018;6.306;2022-11-20T09:40:09;30.63;;;18.03;;
18899;SDS011;9582;52.018;6.306;2022-11-20T09:42:47;29.37;;;16.77;;
18899;SDS011;9582;52.018;6.306;2022-11-20T09:45:21;29.67;;;18.47;;
18899;SDS011;9582;52.018;6.306;2022-11-20T09:48:01;28.73;;;18.70;;
18899;SDS011;9582;52.018;6.306;2022-11-20T09:50:41;27.17;;;18.33;;
18899;SDS011;9582;52.018;6.306;2022-11-20T09:53:16;27.90;;;17.03;;
18899;SDS011;9582;52.018;6.306;2022-11-20T09:55:52;26.27;;;17.67;;
18899;SDS011;9582;52.018;6.306;2022-11-20T09:58:24;29.37;;;18.67;;
18899;SDS011;9582;52.018;6.306;2022-11-20T10:00:56;29.67;;;19.03;;
18899;SDS011;9582;52.018;6.306;2022-11-20T10:03:29;28.93;;;18.57;;
18899;SDS011;9582;52.018;6.306;2022-11-20T10:06:04;28.30;;;17.87;;
18899;SDS011;9582;52.018;6.306;2022-11-20T10:08:41;28.83;;;18.07;;
18899;SDS011;9582;52.018;6.306;2022-11-20T10:11:12;29.83;;;17.90;;
18899;SDS011;9582;52.018;6.306;2022-11-20T10:13:47;29.77;;;18.13;;
18899;SDS011;9582;52.018;6.306;2022-11-20T10:16:25;28.33;;;18.60;;
18899;SDS011;9582;52.018;6.306;2022-11-20T10:19:04;28.77;;;18.60;;
18899;SDS011;9582;52.018;6.306;2022-11-20T10:21:47;31.67;;;18.63;;
18899;SDS011;9582;52.018;6.306;2022-11-20T10:24:26;29.57;;;18.43;;
18899;SDS011;9582;52.018;6.306;2022-11-20T10:27:09;31.33;;;19.13;;
18899;SDS011;9582;52.018;6.306;2022-11-20T10:29:52;31.83;;;19.90;;
18899;SDS011;9582;52.018;6.306;2022-11-20T10:32:28;28.70;;;18.80;;
18899;SDS011;9582;52.018;6.306;2022-11-20T10:35:00;29.47;;;18.97;;
18899;SDS011;9582;52.018;6.306;2022-11-20T10:37:31;32.43;;;19.93;;
18899;SDS011;9582;52.018;6.306;2022-11-20T10:40:00;34.60;;;20.23;;
18899;SDS011;9582;52.018;6.306;2022-11-20T10:42:33;28.97;;;19.43;;
18899;SDS011;9582;52.018;6.306;2022-11-20T10:45:13;31.93;;;21.13;;
18899;SDS011;9582;52.018;6.306;2022-11-20T10:47:45;31.23;;;20.67;;
18899;SDS011;9582;52.018;6.306;2022-11-20T10:50:13;31.17;;;20.77;;
18899;SDS011;9582;52.018;6.306;2022-11-20T10:52:43;31.77;;;19.53;;
18899;SDS011;9582;52.018;6.306;2022-11-20T10:55:22;32.07;;;19.43;;
18899;SDS011;9582;52.018;6.306;2022-11-20T10:57:59;30.50;;;19.33;;
18899;SDS011;9582;52.018;6.306;2022-11-20T11:00:33;35.07;;;21.47;;
18899;SDS011;9582;52.018;6.306;2022-11-20T11:03:00;33.60;;;22.03;;
18899;SDS011;9582;52.018;6.306;2022-11-20T11:05:33;35.20;;;22.00;;
18899;SDS011;9582;52.018;6.306;2022-11-20T11:08:04;33.07;;;21.17;;
18899;SDS011;9582;52.018;6.306;2022-11-20T11:10:39;32.60;;;21.00;;
18899;SDS011;9582;52.018;6.306;2022-11-20T11:13:18;33.07;;;21.17;;
18899;SDS011;9582;52.018;6.306;2022-11-20T11:15:47;32.47;;;20.90;;
18899;SDS011;9582;52.018;6.306;2022-11-20T11:18:22;33.73;;;20.67;;
18899;SDS011;9582;52.018;6.306;2022-11-20T11:20:50;35.27;;;21.90;;
18899;SDS011;9582;52.018;6.306;2022-11-20T11:23:22;33.00;;;21.03;;
18899;SDS011;9582;52.018;6.306;2022-11-20T11:25:56;36.03;;;21.40;;
18899;SDS011;9582;52.018;6.306;2022-11-20T11:28:25;32.30;;;20.70;;
18899;SDS011;9582;52.018;6.306;2022-11-20T11:30:54;31.60;;;20.80;;
18899;SDS011;9582;52.018;6.306;2022-11-20T11:33:21;29.97;;;20.40;;
18899;SDS011;9582;52.018;6.306;2022-11-20T11:35:49;32.17;;;20.37;;
18899;SDS011;9582;52.018;6.306;2022-11-20T11:38:19;30.33;;;19.70;;
18899;SDS011;9582;52.018;6.306;2022-11-20T11:40:48;31.53;;;20.23;;
18899;SDS011;9582;52.018;6.306;2022-11-20T11:43:18;31.47;;;20.43;;
18899;SDS011;9582;52.018;6.306;2022-11-20T11:46:13;31.97;;;20.20;;
18899;SDS011;9582;52.018;6.306;2022-11-20T11:48:55;30.17;;;21.23;;
18899;SDS011;9582;52.018;6.306;2022-11-20T11:51:23;30.97;;;19.60;;
18899;SDS011;9582;52.018;6.306;2022-11-20T11:53:54;30.30;;;20.27;;
18899;SDS011;9582;52.018;6.306;2022-11-20T11:56:33;30.53;;;19.53;;
18899;SDS011;9582;52.018;6.306;2022-11-20T11:59:00;26.20;;;17.87;;
18899;SDS011;9582;52.018;6.306;2022-11-20T12:01:35;26.07;;;17.20;;
18899;SDS011;9582;52.018;6.306;2022-11-20T12:04:10;26.60;;;17.57;;
18899;SDS011;9582;52.018;6.306;2022-11-20T12:06:44;24.67;;;17.37;;
18899;SDS011;9582;52.018;6.306;2022-11-20T12:09:14;25.83;;;17.83;;
18899;SDS011;9582;52.018;6.306;2022-11-20T12:11:45;24.80;;;17.87;;
18899;SDS011;9582;52.018;6.306;2022-11-20T12:14:17;28.73;;;17.80;;
18899;SDS011;9582;52.018;6.306;2022-11-20T12:16:50;25.10;;;17.00;;
18899;SDS011;9582;52.018;6.306;2022-11-20T12:19:18;25.70;;;17.03;;
18899;SDS011;9582;52.018;6.306;2022-11-20T12:21:51;23.63;;;17.40;;
18899;SDS011;9582;52.018;6.306;2022-11-20T12:24:28;24.47;;;15.87;;
18899;SDS011;9582;52.018;6.306;2022-11-20T12:27:19;24.27;;;16.83;;
18899;SDS011;9582;52.018;6.306;2022-11-20T12:29:59;20.43;;;14.07;;
18899;SDS011;9582;52.018;6.306;2022-11-20T12:35:41;20.40;;;13.97;;
18899;SDS011;9582;52.018;6.306;2022-11-20T12:38:32;19.47;;;13.73;;
18899;SDS011;9582;52.018;6.306;2022-11-20T12:41:10;22.53;;;14.43;;
18899;SDS011;9582;52.018;6.306;2022-11-20T12:44:04;21.60;;;15.00;;
18899;SDS011;9582;52.018;6.306;2022-11-20T12:47:01;20.70;;;14.77;;
18899;SDS011;9582;52.018;6.306;2022-11-20T12:49:38;22.30;;;15.53;;
18899;SDS011;9582;52.018;6.306;2022-11-20T12:52:17;22.70;;;15.60;;
18899;SDS011;9582;52.018;6.306;2022-11-20T12:55:04;22.53;;;16.13;;
18899;SDS011;9582;52.018;6.306;2022-11-20T12:57:41;21.23;;;15.67;;
18899;SDS011;9582;52.018;6.306;2022-11-20T13:00:16;22.47;;;15.33;;
18899;SDS011;9582;52.018;6.306;2022-11-20T13:02:54;24.33;;;16.03;;
18899;SDS011;9582;52.018;6.306;2022-11-20T13:05:35;22.67;;;14.33;;
18899;SDS011;9582;52.018;6.306;2022-11-20T13:08:15;26.40;;;16.27;;
18899;SDS011;9582;52.018;6.306;2022-11-20T13:10:46;21.77;;;15.67;;
18899;SDS011;9582;52.018;6.306;2022-11-20T13:13:19;23.77;;;16.90;;
18899;SDS011;9582;52.018;6.306;2022-11-20T13:15:50;21.73;;;13.97;;
18899;SDS011;9582;52.018;6.306;2022-11-20T13:18:24;25.07;;;17.03;;
18899;SDS011;9582;52.018;6.306;2022-11-20T13:20:51;24.87;;;16.57;;
18899;SDS011;9582;52.018;6.306;2022-11-20T13:23:25;29.40;;;17.37;;
18899;SDS011;9582;52.018;6.306;2022-11-20T13:26:03;26.13;;;17.13;;
18899;SDS011;9582;52.018;6.306;2022-11-20T13:28:31;28.07;;;17.17;;
18899;SDS011;9582;52.018;6.306;2022-11-20T13:30:58;23.60;;;16.33;;
18899;SDS011;9582;52.018;6.306;2022-11-20T13:33:27;24.03;;;17.10;;
18899;SDS011;9582;52.018;6.306;2022-11-20T13:35:57;24.27;;;17.73;;
18899;SDS011;9582;52.018;6.306;2022-11-20T13:38:26;24.70;;;17.23;;
18899;SDS011;9582;52.018;6.306;2022-11-20T13:40:55;25.63;;;18.50;;
18899;SDS011;9582;52.018;6.306;2022-11-20T13:43:26;29.70;;;19.27;;
18899;SDS011;9582;52.018;6.306;2022-11-20T13:45:58;28.97;;;18.03;;
18899;SDS011;9582;52.018;6.306;2022-11-20T13:48:27;26.03;;;18.93;;
18899;SDS011;9582;52.018;6.306;2022-11-20T13:51:12;27.33;;;18.53;;
18899;SDS011;9582;52.018;6.306;2022-11-20T13:53:56;25.23;;;18.27;;
18899;SDS011;9582;52.018;6.306;2022-11-20T13:56:34;24.93;;;17.43;;
18899;SDS011;9582;52.018;6.306;2022-11-20T13:59:11;26.00;;;17.53;;
18899;SDS011;9582;52.018;6.306;2022-11-20T14:01:50;27.33;;;17.70;;
18899;SDS011;9582;52.018;6.306;2022-11-20T14:04:18;23.93;;;16.33;;
18899;SDS011;9582;52.018;6.306;2022-11-20T14:06:51;27.27;;;18.07;;
18899;SDS011;9582;52.018;6.306;2022-11-20T14:09:26;26.47;;;17.83;;
18899;SDS011;9582;52.018;6.306;2022-11-20T14:11:53;28.20;;;18.40;;
18899;SDS011;9582;52.018;6.306;2022-11-20T14:14:20;25.97;;;17.37;;
18899;SDS011;9582;52.018;6.306;2022-11-20T14:16:48;28.27;;;17.67;;
18899;SDS011;9582;52.018;6.306;2022-11-20T14:19:21;26.43;;;17.90;;
18899;SDS011;9582;52.018;6.306;2022-11-20T14:21:52;30.97;;;18.07;;
18899;SDS011;9582;52.018;6.306;2022-11-20T14:24:20;24.80;;;16.17;;
18899;SDS011;9582;52.018;6.306;2022-11-20T14:26:50;24.77;;;16.47;;
18899;SDS011;9582;52.018;6.306;2022-11-20T14:29:18;29.27;;;18.03;;
18899;SDS011;9582;52.018;6.306;2022-11-20T14:31:48;29.83;;;17.27;;
18899;SDS011;9582;52.018;6.306;2022-11-20T14:34:18;28.30;;;18.07;;
18899;SDS011;9582;52.018;6.306;2022-11-20T14:36:47;24.83;;;15.67;;
18899;SDS011;9582;52.018;6.306;2022-11-20T14:39:19;27.80;;;17.00;;
18899;SDS011;9582;52.018;6.306;2022-11-20T14:41:51;28.80;;;16.97;;
18899;SDS011;9582;52.018;6.306;2022-11-20T14:44:18;26.17;;;17.43;;
18899;SDS011;9582;52.018;6.306;2022-11-20T14:46:49;27.20;;;16.73;;
18899;SDS011;9582;52.018;6.306;2022-11-20T14:49:17;25.97;;;17.83;;
18899;SDS011;9582;52.018;6.306;2022-11-20T14:51:44;24.47;;;17.07;;
18899;SDS011;9582;52.018;6.306;2022-11-20T14:54:11;29.47;;;18.67;;